sensor_id;sensor_type;location;lat;lon;timestamp;temperature;humidity
7117;DHT22;3600;48.568;7.870;2023-08-20T00:01:04;23.40;99.90
7117;DHT22;3600;48.568;7.870;2023-08-20T00:03:31;23.40;99.90
7117;DHT22;3600;48.568;7.870;2023-08-20T00:05:58;23.30;99.90
7117;DHT22;3600;48.568;7.870;2023-08-20T00:08:25;23.30;99.90
7117;DHT22;3600;48.568;7.870;2023-08-20T00:10:51;23.30;99.90
7117;DHT22;3600;48.568;7.870;2023-08-20T00:13:18;23.30;99.90
7117;DHT22;3600;48.568;7.870;2023-08-20T00:15:45;23.30;99.90
7117;DHT22;3600;48.568;7.870;2023-08-20T00:18:12;23.20;99.90
7117;DHT22;3600;48.568;7.870;2023-08-20T00:20:39;23.20;99.90
7117;DHT22;3600;48.568;7.870;2023-08-20T00:23:07;23.20;99.90
7117;DHT22;3600;48.568;7.870;2023-08-20T00:25:34;23.20;99.90
7117;DHT22;3600;48.568;7.870;2023-08-20T00:28:01;23.10;99.90
7117;DHT22;3600;48.568;7.870;2023-08-20T00:30:28;23.10;99.90
7117;DHT22;3600;48.568;7.870;2023-08-20T00:32:55;23.10;99.90
7117;DHT22;3600;48.568;7.870;2023-08-20T00:35:22;23.10;99.90
7117;DHT22;3600;48.568;7.870;2023-08-20T00:37:50;23.10;99.90
7117;DHT22;3600;48.568;7.870;2023-08-20T00:40:16;23.00;99.90
7117;DHT22;3600;48.568;7.870;2023-08-20T00:42:43;23.00;99.90
7117;DHT22;3600;48.568;7.870;2023-08-20T00:45:10;23.00;99.90
7117;DHT22;3600;48.568;7.870;2023-08-20T00:47:37;22.90;99.90
7117;DHT22;3600;48.568;7.870;2023-08-20T00:50:04;22.90;99.90
7117;DHT22;3600;48.568;7.870;2023-08-20T00:52:34;22.80;99.90
7117;DHT22;3600;48.568;7.870;2023-08-20T00:55:08;22.80;99.90
7117;DHT22;3600;48.568;7.870;2023-08-20T00:57:37;22.80;99.90
7117;DHT22;3600;48.568;7.870;2023-08-20T01:00:05;22.80;99.90
7117;DHT22;3600;48.568;7.870;2023-08-20T01:02:38;22.70;99.90
7117;DHT22;3600;48.568;7.870;2023-08-20T01:05:08;22.80;99.90
7117;DHT22;3600;48.568;7.870;2023-08-20T01:10:56;22.80;99.90
7117;DHT22;3600;48.568;7.870;2023-08-20T01:13:24;22.70;99.90
7117;DHT22;3600;48.568;7.870;2023-08-20T01:15:51;22.70;99.90
7117;DHT22;3600;48.568;7.870;2023-08-20T01:18:17;22.70;99.90
7117;DHT22;3600;48.568;7.870;2023-08-20T01:20:56;22.60;99.90
7117;DHT22;3600;48.568;7.870;2023-08-20T01:26:48;22.80;99.90
7117;DHT22;3600;48.568;7.870;2023-08-20T01:29:17;22.90;99.90
7117;DHT22;3600;48.568;7.870;2023-08-20T01:31:44;22.90;99.90
7117;DHT22;3600;48.568;7.870;2023-08-20T01:34:11;22.80;99.90
7117;DHT22;3600;48.568;7.870;2023-08-20T01:36:39;22.70;99.90
7117;DHT22;3600;48.568;7.870;2023-08-20T01:39:05;22.60;99.90
7117;DHT22;3600;48.568;7.870;2023-08-20T01:41:32;22.40;99.90
7117;DHT22;3600;48.568;7.870;2023-08-20T01:43:59;22.40;99.90
7117;DHT22;3600;48.568;7.870;2023-08-20T01:46:26;22.50;99.90
7117;DHT22;3600;48.568;7.870;2023-08-20T01:48:53;22.50;99.90
7117;DHT22;3600;48.568;7.870;2023-08-20T01:51:20;22.60;99.90
7117;DHT22;3600;48.568;7.870;2023-08-20T01:53:46;22.70;99.90
7117;DHT22;3600;48.568;7.870;2023-08-20T01:56:13;22.70;99.90
7117;DHT22;3600;48.568;7.870;2023-08-20T01:58:40;22.60;99.90
7117;DHT22;3600;48.568;7.870;2023-08-20T02:01:10;22.40;99.90
7117;DHT22;3600;48.568;7.870;2023-08-20T02:03:37;22.30;99.90
7117;DHT22;3600;48.568;7.870;2023-08-20T02:06:06;22.20;99.90
7117;DHT22;3600;48.568;7.870;2023-08-20T02:08:33;22.00;99.90
7117;DHT22;3600;48.568;7.870;2023-08-20T02:11:03;21.90;99.90
7117;DHT22;3600;48.568;7.870;2023-08-20T02:13:31;22.00;99.90
7117;DHT22;3600;48.568;7.870;2023-08-20T02:16:02;22.00;99.90
7117;DHT22;3600;48.568;7.870;2023-08-20T02:18:30;22.10;99.90
7117;DHT22;3600;48.568;7.870;2023-08-20T02:20:57;22.10;99.90
7117;DHT22;3600;48.568;7.870;2023-08-20T02:23:24;22.10;99.90
7117;DHT22;3600;48.568;7.870;2023-08-20T02:25:51;22.10;99.90
7117;DHT22;3600;48.568;7.870;2023-08-20T02:28:18;22.00;99.90
7117;DHT22;3600;48.568;7.870;2023-08-20T02:30:46;22.10;99.90
7117;DHT22;3600;48.568;7.870;2023-08-20T02:33:13;22.10;99.90
7117;DHT22;3600;48.568;7.870;2023-08-20T02:35:40;22.10;99.90
7117;DHT22;3600;48.568;7.870;2023-08-20T02:38:07;22.10;99.90
7117;DHT22;3600;48.568;7.870;2023-08-20T02:40:40;22.20;99.90
7117;DHT22;3600;48.568;7.870;2023-08-20T02:43:08;22.20;99.90
7117;DHT22;3600;48.568;7.870;2023-08-20T02:45:42;22.30;99.90
7117;DHT22;3600;48.568;7.870;2023-08-20T02:48:09;22.20;99.90
7117;DHT22;3600;48.568;7.870;2023-08-20T02:50:37;22.10;99.90
7117;DHT22;3600;48.568;7.870;2023-08-20T02:53:04;22.00;99.90
7117;DHT22;3600;48.568;7.870;2023-08-20T02:55:31;22.10;99.90
7117;DHT22;3600;48.568;7.870;2023-08-20T02:57:59;22.10;99.90
7117;DHT22;3600;48.568;7.870;2023-08-20T03:00:25;22.20;99.90
7117;DHT22;3600;48.568;7.870;2023-08-20T03:02:52;22.00;99.90
7117;DHT22;3600;48.568;7.870;2023-08-20T03:05:19;22.10;99.90
7117;DHT22;3600;48.568;7.870;2023-08-20T03:07:46;22.10;99.90
7117;DHT22;3600;48.568;7.870;2023-08-20T03:10:13;22.20;99.90
7117;DHT22;3600;48.568;7.870;2023-08-20T03:12:40;21.90;99.90
7117;DHT22;3600;48.568;7.870;2023-08-20T03:15:07;21.80;99.90
7117;DHT22;3600;48.568;7.870;2023-08-20T03:17:34;21.70;99.90
7117;DHT22;3600;48.568;7.870;2023-08-20T03:20:01;21.60;99.90
7117;DHT22;3600;48.568;7.870;2023-08-20T03:22:31;21.70;99.90
7117;DHT22;3600;48.568;7.870;2023-08-20T03:24:57;21.60;99.90
7117;DHT22;3600;48.568;7.870;2023-08-20T03:27:24;21.50;99.90
7117;DHT22;3600;48.568;7.870;2023-08-20T03:29:52;21.50;99.90
7117;DHT22;3600;48.568;7.870;2023-08-20T03:32:19;21.60;99.90
7117;DHT22;3600;48.568;7.870;2023-08-20T03:34:46;21.70;99.90
7117;DHT22;3600;48.568;7.870;2023-08-20T03:37:13;21.80;99.90
7117;DHT22;3600;48.568;7.870;2023-08-20T03:39:39;21.60;99.90
7117;DHT22;3600;48.568;7.870;2023-08-20T03:42:06;21.70;99.90
7117;DHT22;3600;48.568;7.870;2023-08-20T03:44:33;21.70;99.90
7117;DHT22;3600;48.568;7.870;2023-08-20T03:47:00;21.80;99.90
7117;DHT22;3600;48.568;7.870;2023-08-20T03:49:27;21.80;99.90
7117;DHT22;3600;48.568;7.870;2023-08-20T03:51:53;21.70;99.90
7117;DHT22;3600;48.568;7.870;2023-08-20T03:54:20;21.60;99.90
7117;DHT22;3600;48.568;7.870;2023-08-20T03:56:47;21.40;99.90
7117;DHT22;3600;48.568;7.870;2023-08-20T03:59:13;21.40;99.90
7117;DHT22;3600;48.568;7.870;2023-08-20T04:01:40;21.50;99.90
7117;DHT22;3600;48.568;7.870;2023-08-20T04:04:08;21.50;99.90
7117;DHT22;3600;48.568;7.870;2023-08-20T04:06:35;21.50;99.90
7117;DHT22;3600;48.568;7.870;2023-08-20T04:09:01;21.40;99.90
7117;DHT22;3600;48.568;7.870;2023-08-20T04:11:29;21.40;99.90
7117;DHT22;3600;48.568;7.870;2023-08-20T04:13:56;21.40;99.90
7117;DHT22;3600;48.568;7.870;2023-08-20T04:16:22;21.40;99.90
7117;DHT22;3600;48.568;7.870;2023-08-20T04:18:49;21.50;99.90
7117;DHT22;3600;48.568;7.870;2023-08-20T04:21:16;21.50;99.90
7117;DHT22;3600;48.568;7.870;2023-08-20T04:23:43;21.50;99.90
7117;DHT22;3600;48.568;7.870;2023-08-20T04:26:09;21.50;99.90
7117;DHT22;3600;48.568;7.870;2023-08-20T04:28:36;21.60;99.90
7117;DHT22;3600;48.568;7.870;2023-08-20T04:31:03;21.60;99.90
7117;DHT22;3600;48.568;7.870;2023-08-20T04:33:30;21.50;99.90
7117;DHT22;3600;48.568;7.870;2023-08-20T04:35:56;21.60;99.90
7117;DHT22;3600;48.568;7.870;2023-08-20T04:38:23;21.60;99.90
7117;DHT22;3600;48.568;7.870;2023-08-20T04:40:50;21.50;99.90
7117;DHT22;3600;48.568;7.870;2023-08-20T04:43:17;21.50;99.90
7117;DHT22;3600;48.568;7.870;2023-08-20T04:45:44;21.50;99.90
7117;DHT22;3600;48.568;7.870;2023-08-20T04:48:10;21.50;99.90
7117;DHT22;3600;48.568;7.870;2023-08-20T04:50:37;21.60;99.90
7117;DHT22;3600;48.568;7.870;2023-08-20T04:53:04;21.60;99.90
7117;DHT22;3600;48.568;7.870;2023-08-20T04:55:31;21.60;99.90
7117;DHT22;3600;48.568;7.870;2023-08-20T04:57:57;21.60;99.90
7117;DHT22;3600;48.568;7.870;2023-08-20T05:00:24;21.60;99.90
7117;DHT22;3600;48.568;7.870;2023-08-20T05:02:51;21.50;99.90
7117;DHT22;3600;48.568;7.870;2023-08-20T05:05:18;21.30;99.90
7117;DHT22;3600;48.568;7.870;2023-08-20T05:07:45;21.30;99.90
7117;DHT22;3600;48.568;7.870;2023-08-20T05:10:12;21.30;99.90
7117;DHT22;3600;48.568;7.870;2023-08-20T05:12:38;21.20;99.90
7117;DHT22;3600;48.568;7.870;2023-08-20T05:15:05;21.20;99.90
7117;DHT22;3600;48.568;7.870;2023-08-20T05:17:33;21.10;99.90
7117;DHT22;3600;48.568;7.870;2023-08-20T05:19:59;21.30;99.90
7117;DHT22;3600;48.568;7.870;2023-08-20T05:22:26;21.20;99.90
7117;DHT22;3600;48.568;7.870;2023-08-20T05:24:53;21.30;99.90
7117;DHT22;3600;48.568;7.870;2023-08-20T05:27:20;21.40;99.90
7117;DHT22;3600;48.568;7.870;2023-08-20T05:29:46;21.30;99.90
7117;DHT22;3600;48.568;7.870;2023-08-20T05:32:13;21.30;99.90
7117;DHT22;3600;48.568;7.870;2023-08-20T05:34:41;21.30;99.90
7117;DHT22;3600;48.568;7.870;2023-08-20T05:37:08;21.40;99.90
7117;DHT22;3600;48.568;7.870;2023-08-20T05:39:41;21.40;99.90
7117;DHT22;3600;48.568;7.870;2023-08-20T05:42:09;21.50;99.90
7117;DHT22;3600;48.568;7.870;2023-08-20T05:44:36;21.60;99.90
7117;DHT22;3600;48.568;7.870;2023-08-20T05:47:03;21.60;99.90
7117;DHT22;3600;48.568;7.870;2023-08-20T05:49:32;21.70;99.90
7117;DHT22;3600;48.568;7.870;2023-08-20T05:51:59;21.70;99.90
7117;DHT22;3600;48.568;7.870;2023-08-20T05:54:25;21.60;99.90
7117;DHT22;3600;48.568;7.870;2023-08-20T05:56:52;21.60;99.90
7117;DHT22;3600;48.568;7.870;2023-08-20T05:59:19;21.60;99.90
7117;DHT22;3600;48.568;7.870;2023-08-20T06:01:46;21.70;99.90
7117;DHT22;3600;48.568;7.870;2023-08-20T06:04:13;21.70;99.90
7117;DHT22;3600;48.568;7.870;2023-08-20T06:06:39;21.80;99.90
7117;DHT22;3600;48.568;7.870;2023-08-20T06:09:07;21.70;99.90
7117;DHT22;3600;48.568;7.870;2023-08-20T06:11:35;21.70;99.90
7117;DHT22;3600;48.568;7.870;2023-08-20T06:14:03;21.80;99.90
7117;DHT22;3600;48.568;7.870;2023-08-20T06:16:29;21.90;99.90
7117;DHT22;3600;48.568;7.870;2023-08-20T06:18:58;21.90;99.90
7117;DHT22;3600;48.568;7.870;2023-08-20T06:21:28;22.00;99.90
7117;DHT22;3600;48.568;7.870;2023-08-20T06:23:55;21.90;99.90
7117;DHT22;3600;48.568;7.870;2023-08-20T06:26:22;22.00;99.90
7117;DHT22;3600;48.568;7.870;2023-08-20T06:28:49;22.00;99.90
7117;DHT22;3600;48.568;7.870;2023-08-20T06:31:15;22.00;99.90
7117;DHT22;3600;48.568;7.870;2023-08-20T06:33:42;22.00;99.90
7117;DHT22;3600;48.568;7.870;2023-08-20T06:36:10;22.10;99.90
7117;DHT22;3600;48.568;7.870;2023-08-20T06:38:37;22.10;99.90
7117;DHT22;3600;48.568;7.870;2023-08-20T06:41:03;22.10;99.90
7117;DHT22;3600;48.568;7.870;2023-08-20T06:43:30;22.20;99.90
7117;DHT22;3600;48.568;7.870;2023-08-20T06:45:57;22.20;99.90
7117;DHT22;3600;48.568;7.870;2023-08-20T06:48:24;22.30;99.90
7117;DHT22;3600;48.568;7.870;2023-08-20T06:50:51;22.40;99.90
7117;DHT22;3600;48.568;7.870;2023-08-20T06:53:18;22.40;99.90
7117;DHT22;3600;48.568;7.870;2023-08-20T06:55:45;22.40;99.90
7117;DHT22;3600;48.568;7.870;2023-08-20T06:58:12;22.50;99.90
7117;DHT22;3600;48.568;7.870;2023-08-20T07:00:38;22.50;99.90
7117;DHT22;3600;48.568;7.870;2023-08-20T07:03:05;22.60;99.90
7117;DHT22;3600;48.568;7.870;2023-08-20T07:05:32;22.80;99.90
7117;DHT22;3600;48.568;7.870;2023-08-20T07:07:59;22.90;99.90
7117;DHT22;3600;48.568;7.870;2023-08-20T07:10:26;23.00;99.90
7117;DHT22;3600;48.568;7.870;2023-08-20T07:12:53;23.00;99.90
7117;DHT22;3600;48.568;7.870;2023-08-20T07:15:19;23.10;99.90
7117;DHT22;3600;48.568;7.870;2023-08-20T07:17:46;23.30;99.90
7117;DHT22;3600;48.568;7.870;2023-08-20T07:20:13;23.20;99.90
7117;DHT22;3600;48.568;7.870;2023-08-20T07:22:40;23.30;99.90
7117;DHT22;3600;48.568;7.870;2023-08-20T07:25:07;23.30;99.90
7117;DHT22;3600;48.568;7.870;2023-08-20T07:27:34;23.40;99.90
7117;DHT22;3600;48.568;7.870;2023-08-20T07:30:01;23.50;99.90
7117;DHT22;3600;48.568;7.870;2023-08-20T07:32:29;23.60;99.90
7117;DHT22;3600;48.568;7.870;2023-08-20T07:34:56;23.70;99.90
7117;DHT22;3600;48.568;7.870;2023-08-20T07:37:22;23.80;99.90
7117;DHT22;3600;48.568;7.870;2023-08-20T07:39:49;23.70;99.90
7117;DHT22;3600;48.568;7.870;2023-08-20T07:42:16;24.00;99.90
7117;DHT22;3600;48.568;7.870;2023-08-20T07:44:44;24.10;99.90
7117;DHT22;3600;48.568;7.870;2023-08-20T07:47:11;24.10;99.90
7117;DHT22;3600;48.568;7.870;2023-08-20T07:49:39;24.20;99.90
7117;DHT22;3600;48.568;7.870;2023-08-20T07:52:05;24.20;99.90
7117;DHT22;3600;48.568;7.870;2023-08-20T07:54:32;24.20;99.90
7117;DHT22;3600;48.568;7.870;2023-08-20T07:56:59;24.30;99.90
7117;DHT22;3600;48.568;7.870;2023-08-20T07:59:26;24.40;99.90
7117;DHT22;3600;48.568;7.870;2023-08-20T08:01:52;24.40;99.90
7117;DHT22;3600;48.568;7.870;2023-08-20T08:04:19;24.50;99.90
7117;DHT22;3600;48.568;7.870;2023-08-20T08:06:46;24.50;99.90
7117;DHT22;3600;48.568;7.870;2023-08-20T08:09:21;24.50;99.90
7117;DHT22;3600;48.568;7.870;2023-08-20T08:11:48;24.60;99.90
7117;DHT22;3600;48.568;7.870;2023-08-20T08:14:16;24.70;99.90
7117;DHT22;3600;48.568;7.870;2023-08-20T08:16:42;24.70;99.90
7117;DHT22;3600;48.568;7.870;2023-08-20T08:19:09;24.80;99.90
7117;DHT22;3600;48.568;7.870;2023-08-20T08:21:37;24.90;99.90
7117;DHT22;3600;48.568;7.870;2023-08-20T08:24:04;24.80;99.90
7117;DHT22;3600;48.568;7.870;2023-08-20T08:26:33;25.00;99.90
7117;DHT22;3600;48.568;7.870;2023-08-20T08:29:00;25.00;99.90
7117;DHT22;3600;48.568;7.870;2023-08-20T08:31:27;25.10;99.90
7117;DHT22;3600;48.568;7.870;2023-08-20T08:33:53;25.00;99.90
7117;DHT22;3600;48.568;7.870;2023-08-20T08:36:20;25.10;99.90
7117;DHT22;3600;48.568;7.870;2023-08-20T08:38:47;25.20;99.90
7117;DHT22;3600;48.568;7.870;2023-08-20T08:41:14;25.20;99.90
7117;DHT22;3600;48.568;7.870;2023-08-20T08:43:41;25.30;99.90
7117;DHT22;3600;48.568;7.870;2023-08-20T08:46:13;25.40;99.90
7117;DHT22;3600;48.568;7.870;2023-08-20T08:48:45;25.40;99.90
7117;DHT22;3600;48.568;7.870;2023-08-20T08:51:13;25.50;99.90
7117;DHT22;3600;48.568;7.870;2023-08-20T08:53:42;25.60;99.90
7117;DHT22;3600;48.568;7.870;2023-08-20T08:56:11;25.60;99.90
7117;DHT22;3600;48.568;7.870;2023-08-20T08:58:37;25.80;99.90
7117;DHT22;3600;48.568;7.870;2023-08-20T09:01:04;26.00;99.90
7117;DHT22;3600;48.568;7.870;2023-08-20T09:03:32;25.90;99.90
7117;DHT22;3600;48.568;7.870;2023-08-20T09:06:00;25.80;99.90
7117;DHT22;3600;48.568;7.870;2023-08-20T09:08:30;25.90;99.90
7117;DHT22;3600;48.568;7.870;2023-08-20T09:11:01;26.10;99.90
7117;DHT22;3600;48.568;7.870;2023-08-20T09:16:06;26.20;99.90
7117;DHT22;3600;48.568;7.870;2023-08-20T09:18:38;26.20;99.90
7117;DHT22;3600;48.568;7.870;2023-08-20T09:21:11;26.40;99.90
7117;DHT22;3600;48.568;7.870;2023-08-20T09:23:38;26.40;99.90
7117;DHT22;3600;48.568;7.870;2023-08-20T09:26:06;26.40;99.90
7117;DHT22;3600;48.568;7.870;2023-08-20T09:28:41;26.40;99.90
7117;DHT22;3600;48.568;7.870;2023-08-20T09:31:09;26.60;99.90
7117;DHT22;3600;48.568;7.870;2023-08-20T09:33:51;26.70;99.90
7117;DHT22;3600;48.568;7.870;2023-08-20T09:36:18;26.70;99.90
7117;DHT22;3600;48.568;7.870;2023-08-20T09:38:45;26.60;99.90
7117;DHT22;3600;48.568;7.870;2023-08-20T09:41:16;26.80;99.90
7117;DHT22;3600;48.568;7.870;2023-08-20T09:43:44;26.70;99.90
7117;DHT22;3600;48.568;7.870;2023-08-20T09:46:12;26.90;99.90
7117;DHT22;3600;48.568;7.870;2023-08-20T09:48:41;27.00;99.90
7117;DHT22;3600;48.568;7.870;2023-08-20T09:51:11;27.20;99.90
7117;DHT22;3600;48.568;7.870;2023-08-20T09:53:45;27.20;99.90
7117;DHT22;3600;48.568;7.870;2023-08-20T09:56:36;27.20;99.90
7117;DHT22;3600;48.568;7.870;2023-08-20T09:59:05;27.40;99.90
7117;DHT22;3600;48.568;7.870;2023-08-20T10:01:33;27.60;99.90
7117;DHT22;3600;48.568;7.870;2023-08-20T10:04:00;27.70;99.90
7117;DHT22;3600;48.568;7.870;2023-08-20T10:06:27;27.70;99.90
7117;DHT22;3600;48.568;7.870;2023-08-20T10:08:56;27.70;99.90
7117;DHT22;3600;48.568;7.870;2023-08-20T10:11:24;27.70;99.90
7117;DHT22;3600;48.568;7.870;2023-08-20T10:13:51;27.70;99.90
7117;DHT22;3600;48.568;7.870;2023-08-20T10:16:18;27.70;99.90
7117;DHT22;3600;48.568;7.870;2023-08-20T10:18:48;27.80;99.90
7117;DHT22;3600;48.568;7.870;2023-08-20T10:21:15;28.00;99.90
7117;DHT22;3600;48.568;7.870;2023-08-20T10:23:48;28.10;99.90
7117;DHT22;3600;48.568;7.870;2023-08-20T10:26:16;28.10;99.90
7117;DHT22;3600;48.568;7.870;2023-08-20T10:28:43;27.90;99.90
7117;DHT22;3600;48.568;7.870;2023-08-20T10:31:16;28.10;99.90
7117;DHT22;3600;48.568;7.870;2023-08-20T10:36:18;28.30;99.90
7117;DHT22;3600;48.568;7.870;2023-08-20T10:38:49;28.50;99.90
7117;DHT22;3600;48.568;7.870;2023-08-20T10:41:27;28.50;99.90
7117;DHT22;3600;48.568;7.870;2023-08-20T10:43:58;28.60;99.90
7117;DHT22;3600;48.568;7.870;2023-08-20T10:46:27;28.80;99.90
7117;DHT22;3600;48.568;7.870;2023-08-20T10:48:58;28.90;99.90
7117;DHT22;3600;48.568;7.870;2023-08-20T10:51:31;28.90;99.90
7117;DHT22;3600;48.568;7.870;2023-08-20T10:59:27;28.40;99.90
7117;DHT22;3600;48.568;7.870;2023-08-20T11:01:56;28.40;99.90
7117;DHT22;3600;48.568;7.870;2023-08-20T11:04:27;28.60;99.90
7117;DHT22;3600;48.568;7.870;2023-08-20T11:06:56;28.60;99.90
7117;DHT22;3600;48.568;7.870;2023-08-20T11:09:27;28.80;99.90
7117;DHT22;3600;48.568;7.870;2023-08-20T11:11:55;29.00;99.90
7117;DHT22;3600;48.568;7.870;2023-08-20T11:14:22;29.00;99.90
7117;DHT22;3600;48.568;7.870;2023-08-20T11:16:50;29.10;99.90
7117;DHT22;3600;48.568;7.870;2023-08-20T11:19:22;29.00;99.90
7117;DHT22;3600;48.568;7.870;2023-08-20T11:21:49;29.30;99.90
7117;DHT22;3600;48.568;7.870;2023-08-20T11:24:16;29.50;99.90
7117;DHT22;3600;48.568;7.870;2023-08-20T11:26:47;29.70;99.90
7117;DHT22;3600;48.568;7.870;2023-08-20T11:29:16;29.50;99.90
7117;DHT22;3600;48.568;7.870;2023-08-20T11:31:49;29.40;99.90
7117;DHT22;3600;48.568;7.870;2023-08-20T11:34:18;29.60;99.90
7117;DHT22;3600;48.568;7.870;2023-08-20T11:36:45;29.60;99.90
7117;DHT22;3600;48.568;7.870;2023-08-20T11:39:12;29.70;99.90
7117;DHT22;3600;48.568;7.870;2023-08-20T11:41:40;29.80;99.90
7117;DHT22;3600;48.568;7.870;2023-08-20T11:44:10;29.80;99.90
7117;DHT22;3600;48.568;7.870;2023-08-20T11:46:44;30.00;99.90
7117;DHT22;3600;48.568;7.870;2023-08-20T11:49:12;29.90;99.90
7117;DHT22;3600;48.568;7.870;2023-08-20T11:51:41;30.20;99.90
7117;DHT22;3600;48.568;7.870;2023-08-20T11:54:12;29.90;99.90
7117;DHT22;3600;48.568;7.870;2023-08-20T11:56:47;29.90;99.90
7117;DHT22;3600;48.568;7.870;2023-08-20T11:59:14;29.80;99.90
7117;DHT22;3600;48.568;7.870;2023-08-20T12:01:41;30.20;99.90
7117;DHT22;3600;48.568;7.870;2023-08-20T12:04:09;30.30;99.90
7117;DHT22;3600;48.568;7.870;2023-08-20T12:06:37;30.10;99.90
7117;DHT22;3600;48.568;7.870;2023-08-20T12:11:52;30.40;99.90
7117;DHT22;3600;48.568;7.870;2023-08-20T12:14:19;30.50;99.90
7117;DHT22;3600;48.568;7.870;2023-08-20T12:16:46;30.60;99.90
7117;DHT22;3600;48.568;7.870;2023-08-20T12:19:14;30.40;99.90
7117;DHT22;3600;48.568;7.870;2023-08-20T12:21:40;30.50;99.90
7117;DHT22;3600;48.568;7.870;2023-08-20T12:24:10;30.90;99.90
7117;DHT22;3600;48.568;7.870;2023-08-20T12:26:37;30.70;99.90
7117;DHT22;3600;48.568;7.870;2023-08-20T12:29:04;30.70;99.90
7117;DHT22;3600;48.568;7.870;2023-08-20T12:31:32;31.00;99.90
7117;DHT22;3600;48.568;7.870;2023-08-20T12:33:59;30.70;99.90
7117;DHT22;3600;48.568;7.870;2023-08-20T12:36:27;30.80;99.90
7117;DHT22;3600;48.568;7.870;2023-08-20T12:38:55;31.10;99.90
7117;DHT22;3600;48.568;7.870;2023-08-20T12:41:22;31.10;99.90
7117;DHT22;3600;48.568;7.870;2023-08-20T12:43:49;30.80;99.90
7117;DHT22;3600;48.568;7.870;2023-08-20T12:46:16;31.30;99.90
7117;DHT22;3600;48.568;7.870;2023-08-20T12:48:43;31.10;99.90
7117;DHT22;3600;48.568;7.870;2023-08-20T12:51:10;31.00;99.90
7117;DHT22;3600;48.568;7.870;2023-08-20T12:53:40;31.20;99.90
7117;DHT22;3600;48.568;7.870;2023-08-20T12:56:07;31.30;99.90
7117;DHT22;3600;48.568;7.870;2023-08-20T12:58:34;31.10;99.90
7117;DHT22;3600;48.568;7.870;2023-08-20T13:01:01;31.30;99.90
7117;DHT22;3600;48.568;7.870;2023-08-20T13:03:28;31.50;99.90
7117;DHT22;3600;48.568;7.870;2023-08-20T13:05:56;31.50;99.90
7117;DHT22;3600;48.568;7.870;2023-08-20T13:08:26;31.10;99.90
7117;DHT22;3600;48.568;7.870;2023-08-20T13:10:55;31.10;99.90
7117;DHT22;3600;48.568;7.870;2023-08-20T13:13:23;31.40;99.90
7117;DHT22;3600;48.568;7.870;2023-08-20T13:15:53;31.60;99.90
7117;DHT22;3600;48.568;7.870;2023-08-20T13:18:21;31.50;99.90
7117;DHT22;3600;48.568;7.870;2023-08-20T13:20:54;31.40;99.90
7117;DHT22;3600;48.568;7.870;2023-08-20T13:23:21;31.50;99.90
7117;DHT22;3600;48.568;7.870;2023-08-20T13:25:48;31.80;99.90
7117;DHT22;3600;48.568;7.870;2023-08-20T13:28:15;31.60;99.90
7117;DHT22;3600;48.568;7.870;2023-08-20T13:30:42;31.30;99.90
7117;DHT22;3600;48.568;7.870;2023-08-20T13:33:09;31.50;99.90
7117;DHT22;3600;48.568;7.870;2023-08-20T13:35:35;31.50;99.90
7117;DHT22;3600;48.568;7.870;2023-08-20T13:38:02;31.30;99.90
7117;DHT22;3600;48.568;7.870;2023-08-20T13:40:31;31.40;99.90
7117;DHT22;3600;48.568;7.870;2023-08-20T13:42:58;31.40;99.90
7117;DHT22;3600;48.568;7.870;2023-08-20T13:45:25;31.50;99.90
7117;DHT22;3600;48.568;7.870;2023-08-20T13:47:52;31.80;99.90
7117;DHT22;3600;48.568;7.870;2023-08-20T13:50:18;31.80;99.90
7117;DHT22;3600;48.568;7.870;2023-08-20T13:52:45;31.90;99.90
7117;DHT22;3600;48.568;7.870;2023-08-20T13:55:12;31.90;99.90
7117;DHT22;3600;48.568;7.870;2023-08-20T13:57:39;31.80;99.90
7117;DHT22;3600;48.568;7.870;2023-08-20T14:00:07;31.90;99.90
7117;DHT22;3600;48.568;7.870;2023-08-20T14:02:35;31.80;99.90
7117;DHT22;3600;48.568;7.870;2023-08-20T14:05:03;31.90;99.90
7117;DHT22;3600;48.568;7.870;2023-08-20T14:07:32;31.70;99.90
7117;DHT22;3600;48.568;7.870;2023-08-20T14:10:00;32.00;99.90
7117;DHT22;3600;48.568;7.870;2023-08-20T14:12:27;32.00;99.90
7117;DHT22;3600;48.568;7.870;2023-08-20T14:14:55;31.80;99.90
7117;DHT22;3600;48.568;7.870;2023-08-20T14:17:21;31.60;99.90
7117;DHT22;3600;48.568;7.870;2023-08-20T14:19:48;31.50;99.90
7117;DHT22;3600;48.568;7.870;2023-08-20T14:22:15;31.90;99.90
7117;DHT22;3600;48.568;7.870;2023-08-20T14:24:42;31.60;99.90
7117;DHT22;3600;48.568;7.870;2023-08-20T14:27:08;31.80;99.90
7117;DHT22;3600;48.568;7.870;2023-08-20T14:29:36;31.90;99.90
7117;DHT22;3600;48.568;7.870;2023-08-20T14:32:03;31.80;99.90
7117;DHT22;3600;48.568;7.870;2023-08-20T14:34:30;31.90;99.90
7117;DHT22;3600;48.568;7.870;2023-08-20T14:36:57;32.30;99.90
7117;DHT22;3600;48.568;7.870;2023-08-20T14:39:24;32.30;99.90
7117;DHT22;3600;48.568;7.870;2023-08-20T14:41:51;32.30;99.90
7117;DHT22;3600;48.568;7.870;2023-08-20T14:44:17;32.20;99.90
7117;DHT22;3600;48.568;7.870;2023-08-20T14:46:44;31.90;99.90
7117;DHT22;3600;48.568;7.870;2023-08-20T14:49:11;31.90;99.90
7117;DHT22;3600;48.568;7.870;2023-08-20T14:51:38;31.80;99.90
7117;DHT22;3600;48.568;7.870;2023-08-20T14:54:05;31.50;99.90
7117;DHT22;3600;48.568;7.870;2023-08-20T14:56:32;31.40;99.90
7117;DHT22;3600;48.568;7.870;2023-08-20T14:58:59;31.60;99.90
7117;DHT22;3600;48.568;7.870;2023-08-20T15:01:26;31.50;99.90
7117;DHT22;3600;48.568;7.870;2023-08-20T15:03:52;31.60;99.90
7117;DHT22;3600;48.568;7.870;2023-08-20T15:06:19;31.70;99.90
7117;DHT22;3600;48.568;7.870;2023-08-20T15:08:48;32.00;99.90
7117;DHT22;3600;48.568;7.870;2023-08-20T15:11:15;32.10;99.90
7117;DHT22;3600;48.568;7.870;2023-08-20T15:13:42;32.10;99.90
7117;DHT22;3600;48.568;7.870;2023-08-20T15:16:09;32.10;99.90
7117;DHT22;3600;48.568;7.870;2023-08-20T15:18:40;32.00;99.90
7117;DHT22;3600;48.568;7.870;2023-08-20T15:21:06;31.90;99.90
7117;DHT22;3600;48.568;7.870;2023-08-20T15:23:36;31.90;99.90
7117;DHT22;3600;48.568;7.870;2023-08-20T15:26:03;31.80;99.90
7117;DHT22;3600;48.568;7.870;2023-08-20T15:28:30;32.00;99.90
7117;DHT22;3600;48.568;7.870;2023-08-20T15:30:57;31.90;99.90
7117;DHT22;3600;48.568;7.870;2023-08-20T15:33:25;31.90;99.90
7117;DHT22;3600;48.568;7.870;2023-08-20T15:35:52;32.00;99.90
7117;DHT22;3600;48.568;7.870;2023-08-20T15:38:18;32.10;99.90
7117;DHT22;3600;48.568;7.870;2023-08-20T15:40:45;31.90;99.90
7117;DHT22;3600;48.568;7.870;2023-08-20T15:43:12;31.80;99.90
7117;DHT22;3600;48.568;7.870;2023-08-20T15:45:39;31.50;99.90
7117;DHT22;3600;48.568;7.870;2023-08-20T15:48:07;31.50;99.90
7117;DHT22;3600;48.568;7.870;2023-08-20T15:50:34;31.40;99.90
7117;DHT22;3600;48.568;7.870;2023-08-20T15:53:01;31.50;99.90
7117;DHT22;3600;48.568;7.870;2023-08-20T15:55:28;31.50;99.90
7117;DHT22;3600;48.568;7.870;2023-08-20T15:57:55;31.50;99.90
7117;DHT22;3600;48.568;7.870;2023-08-20T16:00:21;31.40;99.90
7117;DHT22;3600;48.568;7.870;2023-08-20T16:02:49;31.40;99.90
7117;DHT22;3600;48.568;7.870;2023-08-20T16:05:17;31.30;99.90
7117;DHT22;3600;48.568;7.870;2023-08-20T16:07:44;31.40;99.90
7117;DHT22;3600;48.568;7.870;2023-08-20T16:10:11;31.40;99.90
7117;DHT22;3600;48.568;7.870;2023-08-20T16:12:38;31.40;99.90
7117;DHT22;3600;48.568;7.870;2023-08-20T16:15:06;31.50;99.90
7117;DHT22;3600;48.568;7.870;2023-08-20T16:17:34;31.50;99.90
7117;DHT22;3600;48.568;7.870;2023-08-20T16:20:02;31.50;99.90
7117;DHT22;3600;48.568;7.870;2023-08-20T16:22:30;31.50;99.90
7117;DHT22;3600;48.568;7.870;2023-08-20T16:24:57;31.40;99.90